Time;durP1;ratioP1;P1;durP2;ratioP2;P2;SDS_P1;SDS_P2;PMS_P1;PMS_P2;Temp;Humidity;BMP_temperature;BMP_pressure;BME280_temperature;BME280_humidity;BME280_pressure;Samples;Min_cycle;Max_cycle;Signal;HPM_P1;HPM_P2
2023/06/12 00:01:48;;;;;;;20.17;9.40;;;10.90;99.90;;;;;;5092040;28;20048;-67
2023/06/12 00:04:17;;;;;;;16.60;9.48;;;10.90;99.90;;;;;;5084715;28;20052;-67
2023/06/12 00:06:45;;;;;;;19.02;10.43;;;11.00;99.90;;;;;;5088149;28;20032;-73
2023/06/12 00:09:12;;;;;;;22.60;9.70;;;11.10;99.90;;;;;;5092676;28;20426;-70
2023/06/12 00:11:41;;;;;;;20.55;10.35;;;11.20;99.90;;;;;;5089038;28;20024;-65
2023/06/12 00:14:09;;;;;;;21.00;10.20;;;11.40;99.90;;;;;;5088459;28;20028;-68
2023/06/12 00:16:37;;;;;;;23.13;10.48;;;11.60;99.90;;;;;;5093017;28;20429;-68
2023/06/12 00:19:05;;;;;;;22.25;10.25;;;11.60;99.90;;;;;;5091845;28;20008;-68
2023/06/12 00:21:32;;;;;;;28.52;12.35;;;11.70;99.90;;;;;;5089451;28;20499;-68
2023/06/12 00:24:00;;;;;;;21.23;10.73;;;11.90;99.90;;;;;;5090484;28;20622;-69
2023/06/12 00:26:27;;;;;;;15.82;9.35;;;12.10;99.90;;;;;;5089795;28;20465;-68
2023/06/12 00:28:55;;;;;;;15.77;8.88;;;12.40;99.90;;;;;;5091466;28;20038;-69
2023/06/12 00:31:22;;;;;;;16.33;9.13;;;12.50;99.90;;;;;;5083861;28;20379;-69
2023/06/12 00:33:50;;;;;;;17.95;9.70;;;12.80;99.90;;;;;;5088209;28;20016;-68
2023/06/12 00:36:18;;;;;;;11.98;8.40;;;13.00;99.90;;;;;;5085573;28;20460;-68
2023/06/12 00:38:45;;;;;;;15.70;9.65;;;13.30;99.90;;;;;;5089138;28;20028;-69
2023/06/12 00:41:12;;;;;;;17.60;9.00;;;13.40;99.90;;;;;;5088557;28;20471;-72
2023/06/12 00:43:40;;;;;;;17.85;9.90;;;13.60;99.90;;;;;;5090779;28;20107;-72
2023/06/12 00:46:08;;;;;;;17.60;10.20;;;13.70;99.90;;;;;;5088181;28;20598;-72
2023/06/12 00:48:35;;;;;;;15.10;9.45;;;13.80;99.90;;;;;;5092116;28;20573;-65
2023/06/12 00:51:03;;;;;;;18.70;10.07;;;13.90;99.90;;;;;;5091412;28;20026;-64
2023/06/12 00:53:32;;;;;;;15.27;8.60;;;14.00;99.90;;;;;;5090249;28;20387;-65
2023/06/12 00:55:59;;;;;;;15.05;8.85;;;14.20;99.90;;;;;;5091330;28;20063;-65
2023/06/12 00:58:27;;;;;;;15.07;8.43;;;14.20;99.90;;;;;;5089469;28;20035;-66
2023/06/12 01:00:56;;;;;;;14.60;9.02;;;14.30;99.90;;;;;;5089899;28;20027;-65
2023/06/12 01:03:24;;;;;;;15.20;8.63;;;14.30;99.90;;;;;;5091217;28;20047;-65
2023/06/12 01:05:53;;;;;;;14.07;8.70;;;14.20;99.90;;;;;;5090427;28;20051;-65
2023/06/12 01:08:35;;;;;;;13.40;7.97;;;14.00;99.90;;;;;;5089657;28;20050;-65
2023/06/12 01:11:14;;;;;;;15.02;9.68;;;13.90;99.90;;;;;;5091837;28;20032;-65
2023/06/12 01:13:41;;;;;;;19.38;10.45;;;13.90;99.90;;;;;;5083844;28;20480;-64
2023/06/12 01:16:09;;;;;;;20.30;10.10;;;14.00;99.90;;;;;;5089163;28;20590;-65
2023/06/12 01:18:37;;;;;;;15.32;10.02;;;14.20;99.90;;;;;;5090523;28;20050;-69
2023/06/12 01:21:09;;;;;;;16.65;9.38;;;14.20;99.90;;;;;;5087833;28;20024;-65
2023/06/12 01:24:08;;;;;;;14.52;8.90;;;14.10;99.90;;;;;;5086119;28;20044;-69
2023/06/12 01:26:56;;;;;;;11.75;6.93;;;14.10;99.90;;;;;;5087823;28;20046;-66
2023/06/12 01:29:41;;;;;;;10.52;7.07;;;14.10;99.90;;;;;;5085813;28;21581;-65
2023/06/12 01:32:17;;;;;;;16.30;7.97;;;13.90;99.90;;;;;;5089178;28;20028;-67
2023/06/12 01:34:58;;;;;;;17.75;9.40;;;13.70;99.90;;;;;;5090066;28;20107;-64
2023/06/12 01:37:54;;;;;;;23.45;9.25;;;13.70;99.90;;;;;;5085274;28;20107;-66
2023/06/12 01:40:25;;;;;;;26.50;9.73;;;13.70;99.90;;;;;;5087030;28;20036;-68
2023/06/12 01:42:52;;;;;;;22.23;8.93;;;13.80;99.90;;;;;;5087064;28;20036;-67
2023/06/12 01:45:20;;;;;;;20.23;9.32;;;13.80;99.90;;;;;;5088167;28;20034;-69
2023/06/12 01:47:47;;;;;;;26.35;9.32;;;13.80;99.90;;;;;;5089283;28;20097;-68
2023/06/12 01:50:16;;;;;;;15.07;7.78;;;13.80;99.90;;;;;;5087115;28;20048;-68
2023/06/12 01:52:44;;;;;;;19.10;8.25;;;13.90;99.90;;;;;;5088640;28;20423;-68
2023/06/12 01:55:13;;;;;;;21.15;9.05;;;14.00;99.90;;;;;;5090502;28;20024;-65
2023/06/12 01:57:40;;;;;;;18.80;9.50;;;14.10;99.90;;;;;;5086148;28;20056;-69
2023/06/12 02:00:09;;;;;;;22.73;9.00;;;14.40;99.90;;;;;;5088399;28;20103;-67
2023/06/12 02:02:39;;;;;;;22.48;9.32;;;14.50;99.90;;;;;;5088780;28;20051;-75
2023/06/12 02:05:07;;;;;;;23.33;10.10;;;14.50;99.90;;;;;;5086771;28;20058;-72
2023/06/12 02:07:34;;;;;;;23.88;9.48;;;14.70;99.90;;;;;;5088736;28;20051;-76
2023/06/12 02:10:03;;;;;;;22.08;9.35;;;14.80;99.90;;;;;;5088914;28;20496;-71
2023/06/12 02:12:32;;;;;;;25.33;9.68;;;14.90;99.90;;;;;;5086449;28;20511;-71
2023/06/12 02:15:00;;;;;;;24.70;10.20;;;15.10;99.90;;;;;;5088280;28;20023;-72
2023/06/12 02:17:28;;;;;;;30.02;10.35;;;15.40;99.90;;;;;;5087224;28;20028;-67
2023/06/12 02:19:57;;;;;;;23.05;10.27;;;15.60;99.90;;;;;;5088254;28;20028;-68
2023/06/12 02:22:25;;;;;;;24.48;10.07;;;15.80;99.90;;;;;;5090152;28;20471;-68
2023/06/12 02:24:52;;;;;;;20.40;9.90;;;15.90;99.90;;;;;;5089652;28;20105;-68
2023/06/12 02:27:20;;;;;;;17.25;7.75;;;16.20;99.90;;;;;;5089513;28;20097;-67
2023/06/12 02:29:47;;;;;;;17.50;7.45;;;16.30;99.90;;;;;;5089961;28;20055;-67
2023/06/12 02:32:15;;;;;;;12.65;6.72;;;16.40;99.90;;;;;;5088514;28;20414;-67
2023/06/12 02:34:43;;;;;;;21.38;8.40;;;16.50;99.90;;;;;;5089437;28;20028;-67
2023/06/12 02:37:10;;;;;;;16.90;7.63;;;16.50;99.90;;;;;;5090029;28;20392;-67
2023/06/12 02:39:38;;;;;;;19.83;6.93;;;16.70;99.90;;;;;;5089559;28;20073;-67
2023/06/12 02:42:05;;;;;;;17.98;7.15;;;17.00;99.90;;;;;;5089819;28;20575;-66
2023/06/12 02:44:33;;;;;;;14.85;6.47;;;17.20;99.90;;;;;;5089206;28;20043;-66
2023/06/12 02:47:01;;;;;;;15.90;6.72;;;17.40;99.90;;;;;;5087873;28;20487;-67
2023/06/12 02:49:30;;;;;;;10.57;5.22;;;17.60;99.90;;;;;;5087917;28;20039;-67
2023/06/12 02:51:58;;;;;;;16.60;6.28;;;17.80;99.90;;;;;;5082426;28;20028;-66
2023/06/12 02:54:28;;;;;;;15.48;6.07;;;18.00;99.90;;;;;;5085549;28;20521;-67
2023/06/12 02:56:55;;;;;;;17.55;7.40;;;18.30;99.90;;;;;;5085266;28;20488;-67
2023/06/12 02:59:24;;;;;;;28.90;10.50;;;18.50;99.90;;;;;;5086092;28;20462;-67
2023/06/12 03:01:53;;;;;;;15.30;7.18;;;18.60;99.90;;;;;;5084458;28;20040;-67
2023/06/12 03:04:24;;;;;;;16.63;7.68;;;18.70;99.90;;;;;;5085903;28;20052;-67
2023/06/12 03:06:53;;;;;;;18.33;5.82;;;18.80;99.90;;;;;;5083364;28;20047;-67
2023/06/12 03:09:22;;;;;;;11.10;4.40;;;18.80;99.90;;;;;;5089525;28;20056;-69
2023/06/12 03:11:51;;;;;;;8.40;4.32;;;18.90;99.90;;;;;;5086278;28;20032;-66
2023/06/12 03:14:21;;;;;;;10.43;5.82;;;18.90;99.90;;;;;;5069466;28;20024;-67
2023/06/12 03:16:49;;;;;;;8.68;4.63;;;18.90;99.90;;;;;;5082516;28;20131;-66
2023/06/12 03:19:16;;;;;;;9.55;4.30;;;19.00;99.90;;;;;;5089258;28;20115;-66
2023/06/12 03:21:44;;;;;;;6.03;4.03;;;19.10;99.90;;;;;;5089659;28;20017;-65
2023/06/12 03:24:13;;;;;;;12.85;4.28;;;19.10;99.90;;;;;;5085933;28;20039;-68
2023/06/12 03:26:41;;;;;;;10.23;4.15;;;19.10;99.90;;;;;;5088141;28;20387;-67
2023/06/12 03:29:10;;;;;;;5.70;3.05;;;19.20;99.90;;;;;;5074912;28;20424;-65
2023/06/12 03:31:37;;;;;;;9.05;4.05;;;19.30;99.90;;;;;;5072591;28;20030;-65
2023/06/12 03:34:04;;;;;;;13.55;4.70;;;19.40;99.90;;;;;;5089240;28;20547;-65
2023/06/12 03:36:36;;;;;;;8.15;3.50;;;19.50;99.90;;;;;;5087924;28;20035;-64
2023/06/12 03:39:04;;;;;;;9.00;3.67;;;19.40;99.90;;;;;;5087406;28;20027;-67
2023/06/12 03:41:32;;;;;;;5.78;2.97;;;19.50;99.90;;;;;;5088108;28;20020;-65
2023/06/12 03:44:00;;;;;;;10.82;4.32;;;19.50;99.90;;;;;;5087962;28;20064;-65
2023/06/12 03:46:32;;;;;;;9.00;3.20;;;19.40;99.90;;;;;;5087353;28;20107;-66
2023/06/12 03:49:00;;;;;;;7.85;3.10;;;19.40;99.90;;;;;;5089031;28;20038;-66
2023/06/12 03:51:28;;;;;;;5.38;3.03;;;19.30;99.90;;;;;;5089158;28;20025;-65
2023/06/12 03:53:55;;;;;;;5.55;2.30;;;19.30;99.90;;;;;;5089365;28;20376;-64
2023/06/12 03:56:22;;;;;;;5.22;2.60;;;19.30;99.90;;;;;;5087449;28;20085;-64
2023/06/12 03:58:51;;;;;;;6.28;2.75;;;19.40;99.90;;;;;;5085811;28;20032;-65
2023/06/12 04:01:19;;;;;;;5.97;2.28;;;19.40;99.90;;;;;;5087482;28;20032;-65
2023/06/12 04:03:48;;;;;;;6.90;2.72;;;19.40;99.90;;;;;;5083369;28;20044;-64
2023/06/12 04:06:20;;;;;;;6.05;2.38;;;19.40;99.90;;;;;;5083322;28;20088;-67
2023/06/12 04:08:48;;;;;;;4.82;1.77;;;19.40;99.90;;;;;;5088237;28;20028;-67
2023/06/12 04:11:16;;;;;;;4.07;1.50;;;19.40;99.90;;;;;;5089721;28;20035;-72
2023/06/12 04:13:44;;;;;;;3.53;1.63;;;19.40;99.90;;;;;;5086107;28;20023;-64
2023/06/12 04:16:11;;;;;;;4.07;1.50;;;19.40;99.90;;;;;;5091135;28;20028;-70
2023/06/12 04:18:39;;;;;;;5.28;2.30;;;19.40;99.90;;;;;;5092232;28;20024;-71
2023/06/12 04:21:11;;;;;;;3.33;1.17;;;19.40;99.90;;;;;;5091797;28;20476;-72
2023/06/12 04:23:41;;;;;;;4.53;1.55;;;19.40;99.90;;;;;;5092868;28;20095;-72
2023/06/12 04:26:10;;;;;;;2.15;1.10;;;19.40;99.90;;;;;;5091352;28;20038;-71
2023/06/12 04:28:37;;;;;;;4.22;1.88;;;19.30;99.90;;;;;;5091327;28;20547;-65
2023/06/12 04:31:05;;;;;;;4.60;2.08;;;19.30;99.90;;;;;;5092370;28;20024;-66
2023/06/12 04:33:35;;;;;;;2.95;1.27;;;19.40;99.90;;;;;;5092329;28;20035;-65
2023/06/12 04:36:03;;;;;;;3.50;1.38;;;19.30;99.90;;;;;;5092544;28;20016;-65
2023/06/12 04:38:31;;;;;;;2.67;1.25;;;19.30;99.90;;;;;;5092372;28;20107;-65
2023/06/12 04:40:59;;;;;;;2.53;1.02;;;19.30;99.90;;;;;;5092301;28;20081;-65
2023/06/12 04:43:27;;;;;;;6.35;1.83;;;19.20;99.90;;;;;;5092293;28;20111;-65
2023/06/12 04:45:54;;;;;;;5.38;2.30;;;19.10;99.90;;;;;;5092656;28;20028;-65
2023/06/12 04:48:22;;;;;;;2.65;1.30;;;18.80;99.90;;;;;;5092298;28;20027;-71
2023/06/12 04:50:54;;;;;;;3.28;1.30;;;18.60;99.90;;;;;;5091978;28;20096;-66
2023/06/12 04:53:29;;;;;;;3.60;1.40;;;18.40;99.90;;;;;;5092231;28;20033;-65
2023/06/12 04:56:00;;;;;;;3.70;1.30;;;18.20;99.90;;;;;;5092238;28;20021;-66
2023/06/12 04:58:28;;;;;;;3.05;1.08;;;18.10;99.90;;;;;;5092113;28;20032;-67
2023/06/12 05:00:55;;;;;;;2.13;1.15;;;17.90;99.90;;;;;;5092054;28;20040;-68
2023/06/12 05:03:23;;;;;;;3.83;1.50;;;17.90;99.90;;;;;;5091714;28;20523;-66
2023/06/12 05:05:52;;;;;;;3.38;1.13;;;17.90;99.90;;;;;;5090520;28;20053;-67
2023/06/12 05:08:19;;;;;;;2.47;1.15;;;17.90;99.90;;;;;;5091964;28;20023;-67
2023/06/12 05:10:47;;;;;;;4.47;1.55;;;18.00;99.90;;;;;;5091859;28;20465;-68
2023/06/12 05:13:14;;;;;;;2.90;1.10;;;18.00;99.90;;;;;;5092413;28;20047;-67
2023/06/12 05:15:42;;;;;;;2.03;1.10;;;18.00;99.90;;;;;;5092168;28;20031;-69
2023/06/12 05:18:10;;;;;;;3.42;1.33;;;18.00;99.90;;;;;;5091484;28;20016;-67
2023/06/12 05:20:37;;;;;;;3.65;1.10;;;18.10;99.90;;;;;;5091564;28;20020;-67
2023/06/12 05:23:05;;;;;;;4.35;1.58;;;18.10;99.90;;;;;;5091495;28;20020;-66
2023/06/12 05:25:33;;;;;;;3.33;1.23;;;18.10;99.90;;;;;;5091879;28;20106;-68
2023/06/12 05:28:00;;;;;;;4.53;1.67;;;18.10;99.90;;;;;;5091599;28;20076;-67
2023/06/12 05:30:28;;;;;;;5.38;2.65;;;18.10;99.90;;;;;;5091552;28;20035;-67
2023/06/12 05:32:55;;;;;;;3.33;1.65;;;18.10;99.90;;;;;;5091280;28;20020;-65
2023/06/12 05:35:23;;;;;;;7.03;1.80;;;18.10;99.90;;;;;;5091205;28;20035;-65
2023/06/12 05:37:51;;;;;;;2.88;1.45;;;18.10;99.90;;;;;;5091348;28;20107;-64
2023/06/12 05:40:18;;;;;;;5.45;1.90;;;18.10;99.90;;;;;;5091272;28;20393;-63
2023/06/12 05:42:46;;;;;;;17.77;2.83;;;18.10;99.90;;;;;;5091323;28;20032;-66
2023/06/12 05:45:13;;;;;;;8.32;2.80;;;18.10;99.90;;;;;;5091720;28;20384;-71
2023/06/12 05:47:40;;;;;;;4.57;2.20;;;18.00;99.90;;;;;;5091459;28;20392;-70
2023/06/12 05:50:08;;;;;;;7.22;2.45;;;17.90;99.90;;;;;;5091005;28;20131;-71
2023/06/12 05:52:36;;;;;;;5.40;2.65;;;17.70;99.90;;;;;;5091105;28;20503;-71
2023/06/12 05:55:04;;;;;;;4.43;2.60;;;17.60;99.90;;;;;;5091037;28;20028;-70
2023/06/12 05:57:34;;;;;;;5.28;2.50;;;17.50;99.90;;;;;;5090788;28;20096;-70
2023/06/12 06:00:02;;;;;;;5.05;2.50;;;17.40;99.90;;;;;;5090972;28;20020;-70
2023/06/12 06:02:30;;;;;;;5.57;2.78;;;17.20;99.90;;;;;;5090499;28;20055;-70
2023/06/12 06:04:58;;;;;;;4.95;2.80;;;17.10;99.90;;;;;;5090453;28;20395;-70
2023/06/12 06:07:26;;;;;;;4.78;2.45;;;16.90;99.90;;;;;;5091598;28;20468;-68
2023/06/12 06:09:54;;;;;;;6.25;3.13;;;16.80;99.90;;;;;;5091686;28;20474;-69
2023/06/12 06:12:21;;;;;;;6.00;2.90;;;16.60;99.90;;;;;;5091435;28;20012;-67
2023/06/12 06:14:49;;;;;;;5.82;2.75;;;16.50;99.90;;;;;;5091272;28;20107;-68
2023/06/12 06:17:19;;;;;;;6.28;2.72;;;16.40;99.90;;;;;;5091280;28;20028;-67
2023/06/12 06:19:46;;;;;;;7.78;3.03;;;16.40;99.90;;;;;;5091168;28;20111;-68
2023/06/12 06:22:18;;;;;;;6.60;3.15;;;16.30;99.90;;;;;;5091719;28;20096;-67
2023/06/12 06:24:46;;;;;;;6.00;2.83;;;16.20;99.90;;;;;;5091399;28;20026;-66
2023/06/12 06:27:13;;;;;;;7.30;3.28;;;16.10;99.90;;;;;;5091715;28;20095;-68
2023/06/12 06:29:41;;;;;;;5.18;3.00;;;16.10;99.90;;;;;;5091113;28;20024;-68
2023/06/12 06:32:08;;;;;;;6.60;3.15;;;16.00;99.90;;;;;;5091084;28;20024;-69
2023/06/12 06:34:37;;;;;;;9.98;4.10;;;15.90;99.90;;;;;;5091109;28;20400;-68
2023/06/12 06:37:04;;;;;;;6.07;3.83;;;15.90;99.90;;;;;;5090979;28;20047;-68
2023/06/12 06:39:32;;;;;;;10.65;4.25;;;15.80;99.90;;;;;;5091015;28;20024;-67
2023/06/12 06:41:59;;;;;;;7.00;4.30;;;15.80;99.90;;;;;;5089792;28;20085;-68
2023/06/12 06:44:27;;;;;;;6.60;3.97;;;15.70;99.90;;;;;;5085014;28;20040;-68
2023/06/12 06:46:54;;;;;;;6.53;4.38;;;15.50;99.90;;;;;;5081252;28;20019;-68
2023/06/12 06:49:22;;;;;;;6.97;4.00;;;15.40;99.90;;;;;;5074061;28;20084;-69
2023/06/12 06:51:49;;;;;;;8.85;4.13;;;15.30;99.90;;;;;;5082372;28;20037;-70
2023/06/12 06:54:17;;;;;;;9.75;4.20;;;15.10;99.90;;;;;;5076491;28;20043;-65
2023/06/12 06:56:44;;;;;;;8.55;5.10;;;15.00;99.90;;;;;;5079743;28;20028;-63
2023/06/12 06:59:12;;;;;;;7.93;4.30;;;14.90;99.90;;;;;;5087305;28;20023;-69
2023/06/12 07:01:40;;;;;;;8.05;4.28;;;14.80;99.90;;;;;;5085028;28;20060;-68
2023/06/12 07:04:07;;;;;;;11.85;3.97;;;14.70;99.90;;;;;;5087384;28;20545;-67
2023/06/12 07:06:35;;;;;;;32.40;20.45;;;14.70;99.90;;;;;;5084141;28;20660;-68
2023/06/12 07:09:03;;;;;;;57.15;36.28;;;14.60;99.90;;;;;;5074958;28;20015;-69
2023/06/12 07:11:30;;;;;;;98.22;54.40;;;14.50;99.90;;;;;;5087221;28;20040;-68
2023/06/12 07:13:58;;;;;;;72.85;40.25;;;14.40;99.90;;;;;;5086944;28;20035;-68
2023/06/12 07:16:26;;;;;;;70.78;38.80;;;14.30;99.90;;;;;;5081898;28;20103;-67
2023/06/12 07:18:53;;;;;;;67.78;37.72;;;14.30;99.90;;;;;;5081273;28;20052;-67
2023/06/12 07:21:21;;;;;;;40.30;22.65;;;14.20;99.90;;;;;;5083880;28;20025;-67
2023/06/12 07:23:51;;;;;;;89.72;51.70;;;14.10;99.90;;;;;;5083716;28;20039;-67
2023/06/12 07:26:19;;;;;;;130.98;71.82;;;14.00;99.90;;;;;;5084923;28;20028;-68
2023/06/12 07:28:47;;;;;;;109.95;60.50;;;14.00;99.90;;;;;;5085290;28;20107;-67
2023/06/12 07:31:14;;;;;;;82.25;45.63;;;13.90;99.90;;;;;;5078838;28;20052;-66
2023/06/12 07:33:42;;;;;;;60.05;32.85;;;13.80;99.90;;;;;;5077651;28;20066;-66
2023/06/12 07:36:09;;;;;;;57.55;32.80;;;13.80;99.90;;;;;;5085393;28;20038;-67
2023/06/12 07:38:37;;;;;;;43.65;25.70;;;13.70;99.90;;;;;;5082825;28;20024;-69
2023/06/12 07:41:05;;;;;;;42.70;24.23;;;13.60;99.90;;;;;;5080814;28;20468;-68
2023/06/12 07:43:34;;;;;;;33.17;18.20;;;13.60;99.90;;;;;;5088870;28;20044;-66
2023/06/12 07:46:02;;;;;;;26.10;13.55;;;13.50;99.90;;;;;;5090588;28;20388;-65
2023/06/12 07:48:30;;;;;;;29.33;13.57;;;13.40;99.90;;;;;;5088855;28;20377;-68
2023/06/12 07:50:57;;;;;;;21.23;12.23;;;13.40;99.90;;;;;;5086194;28;20657;-67
2023/06/12 07:53:25;;;;;;;14.30;9.00;;;13.40;99.90;;;;;;5089812;28;20372;-66
2023/06/12 07:55:52;;;;;;;13.25;7.25;;;13.40;99.90;;;;;;5088109;28;20040;-66
2023/06/12 07:58:19;;;;;;;10.00;5.22;;;13.50;99.90;;;;;;5089184;28;20036;-66
2023/06/12 08:00:48;;;;;;;16.08;5.25;;;13.50;99.90;;;;;;5089344;28;20013;-69
2023/06/12 08:03:16;;;;;;;11.98;6.95;;;13.60;99.90;;;;;;5086546;28;20498;-69
2023/06/12 08:05:44;;;;;;;23.40;13.73;;;13.60;99.90;;;;;;5089523;28;20042;-67
2023/06/12 08:08:12;;;;;;;18.48;10.55;;;13.70;99.90;;;;;;5087264;28;20016;-65
2023/06/12 08:10:39;;;;;;;12.02;6.45;;;13.70;99.90;;;;;;5081661;28;20028;-68
2023/06/12 08:13:07;;;;;;;11.63;6.20;;;13.70;99.90;;;;;;5086066;28;20107;-66
2023/06/12 08:15:34;;;;;;;36.38;20.73;;;13.50;99.90;;;;;;5083782;28;20111;-67
2023/06/12 08:18:02;;;;;;;33.70;19.88;;;13.40;99.90;;;;;;5089041;28;20026;-67
2023/06/12 08:20:33;;;;;;;21.13;11.70;;;13.30;99.90;;;;;;5089718;28;20040;-68
2023/06/12 08:23:01;;;;;;;30.73;17.20;;;13.20;99.90;;;;;;5084584;28;20027;-68
2023/06/12 08:25:28;;;;;;;18.08;10.32;;;13.10;99.90;;;;;;5084327;28;20027;-68
2023/06/12 08:27:57;;;;;;;19.60;11.63;;;13.00;99.90;;;;;;5085807;28;20474;-67
2023/06/12 08:30:24;;;;;;;30.65;17.38;;;12.80;99.90;;;;;;5086275;28;20046;-67
2023/06/12 08:32:52;;;;;;;22.95;10.82;;;12.70;99.90;;;;;;5088648;28;20031;-67
2023/06/12 08:35:19;;;;;;;19.88;10.85;;;12.50;99.90;;;;;;5086774;28;20388;-67
2023/06/12 08:37:47;;;;;;;25.77;15.35;;;12.40;99.90;;;;;;5086113;28;20028;-67
2023/06/12 08:40:15;;;;;;;21.63;13.98;;;12.30;99.90;;;;;;5088911;28;20031;-66
2023/06/12 08:42:50;;;;;;;23.17;14.82;;;12.20;99.90;;;;;;5092011;28;20043;-67
2023/06/12 08:45:20;;;;;;;25.48;13.80;;;12.20;99.90;;;;;;5079528;28;20025;-67
2023/06/12 08:47:49;;;;;;;25.27;13.73;;;12.20;99.90;;;;;;5084611;28;20036;-68
2023/06/12 08:50:20;;;;;;;24.40;12.48;;;12.30;99.90;;;;;;5087416;28;20028;-68
2023/06/12 08:52:50;;;;;;;22.67;13.57;;;12.40;99.90;;;;;;5084923;28;20024;-69
2023/06/12 08:55:18;;;;;;;26.48;15.32;;;12.40;99.90;;;;;;5085304;28;20400;-67
2023/06/12 08:57:47;;;;;;;22.83;13.30;;;12.50;99.90;;;;;;5085241;28;20396;-69
2023/06/12 09:00:15;;;;;;;22.10;12.32;;;12.60;99.90;;;;;;5086317;28;20023;-63
2023/06/12 09:02:51;;;;;;;17.30;10.55;;;12.60;99.90;;;;;;5086350;28;20044;-65
2023/06/12 09:05:38;;;;;;;16.52;10.00;;;12.60;99.90;;;;;;5087733;28;20749;-66
2023/06/12 09:08:06;;;;;;;15.77;9.80;;;12.70;99.90;;;;;;5086497;28;21239;-67
2023/06/12 09:10:35;;;;;;;15.85;9.00;;;12.70;99.90;;;;;;5084429;28;20492;-66
2023/06/12 09:13:11;;;;;;;28.13;18.88;;;12.70;99.90;;;;;;5085401;28;20480;-67
2023/06/12 09:15:49;;;;;;;25.08;12.40;;;12.80;99.90;;;;;;5087466;28;20074;-68
2023/06/12 09:18:18;;;;;;;18.23;9.05;;;12.90;99.90;;;;;;5084675;28;20362;-63
2023/06/12 09:20:48;;;;;;;24.48;13.40;;;13.00;99.90;;;;;;5085325;28;20020;-65
2023/06/12 09:23:19;;;;;;;39.40;22.58;;;13.00;99.90;;;;;;5085257;28;20063;-63
2023/06/12 09:25:47;;;;;;;41.78;28.33;;;13.10;99.90;;;;;;5082692;28;20751;-68
2023/06/12 09:28:14;;;;;;;63.05;39.42;;;13.10;99.90;;;;;;5087606;28;20030;-65
2023/06/12 09:30:43;;;;;;;58.50;37.42;;;13.10;99.90;;;;;;5086186;28;20052;-67
2023/06/12 09:33:10;;;;;;;52.97;34.13;;;13.10;99.90;;;;;;5085214;28;20059;-63
2023/06/12 09:35:51;;;;;;;44.80;29.23;;;13.20;99.90;;;;;;5078183;28;20511;-62
2023/06/12 09:38:27;;;;;;;23.63;13.15;;;13.20;99.90;;;;;;5080155;28;21074;-64
2023/06/12 09:40:59;;;;;;;22.55;11.68;;;13.30;99.90;;;;;;5082228;28;20024;-66
2023/06/12 09:43:27;;;;;;;20.40;10.30;;;13.30;99.90;;;;;;5082547;28;20067;-65
2023/06/12 09:45:55;;;;;;;14.27;10.00;;;13.40;99.90;;;;;;5085828;28;20015;-65
2023/06/12 09:48:22;;;;;;;19.88;10.23;;;13.40;99.90;;;;;;5085131;28;20032;-65
2023/06/12 09:50:51;;;;;;;17.05;9.15;;;13.40;99.90;;;;;;5083610;28;20134;-65
2023/06/12 09:53:22;;;;;;;14.20;9.73;;;13.40;99.90;;;;;;5085599;28;20107;-63
2023/06/12 09:55:51;;;;;;;16.90;10.73;;;13.40;99.90;;;;;;5085876;28;20016;-66
2023/06/12 09:58:19;;;;;;;20.80;11.93;;;13.30;99.90;;;;;;5083835;28;20028;-65
2023/06/12 10:00:47;;;;;;;17.52;12.50;;;13.20;99.90;;;;;;5082755;28;20024;-65
2023/06/12 10:03:16;;;;;;;17.83;12.43;;;13.20;99.90;;;;;;5084998;28;20067;-62
2023/06/12 10:05:53;;;;;;;21.90;13.15;;;13.10;99.90;;;;;;5085035;28;20020;-66
2023/06/12 10:08:21;;;;;;;22.50;12.85;;;13.10;99.90;;;;;;5083153;28;20028;-66
2023/06/12 10:10:50;;;;;;;21.77;12.05;;;13.10;99.90;;;;;;5082315;28;20039;-65
2023/06/12 10:13:17;;;;;;;20.92;12.38;;;13.00;99.90;;;;;;5084505;28;20036;-66
2023/06/12 10:15:45;;;;;;;19.30;12.82;;;13.00;99.90;;;;;;5086489;28;20080;-63
2023/06/12 10:18:13;;;;;;;21.58;11.80;;;12.90;99.90;;;;;;5083734;28;20570;-66
2023/06/12 10:20:41;;;;;;;24.65;12.60;;;12.90;99.90;;;;;;5080742;28;20099;-66
2023/06/12 10:23:10;;;;;;;21.33;12.35;;;12.80;99.90;;;;;;5082805;28;20083;-66
2023/06/12 10:25:38;;;;;;;22.77;12.70;;;12.80;99.90;;;;;;5076268;28;20032;-66
2023/06/12 10:28:08;;;;;;;21.75;11.63;;;12.80;99.90;;;;;;5081199;28;20035;-66
2023/06/12 10:30:35;;;;;;;21.00;10.80;;;12.80;99.90;;;;;;5081248;28;20055;-66
2023/06/12 10:33:13;;;;;;;19.75;12.23;;;12.80;99.90;;;;;;5078497;28;20454;-65
2023/06/12 10:35:40;;;;;;;20.90;12.57;;;12.80;99.90;;;;;;5084216;28;20036;-66
2023/06/12 10:38:12;;;;;;;20.80;12.32;;;12.80;99.90;;;;;;5081937;28;20016;-65
2023/06/12 10:40:41;;;;;;;25.15;13.18;;;12.80;99.90;;;;;;5079389;28;20032;-65
2023/06/12 10:43:09;;;;;;;19.63;11.15;;;12.80;99.90;;;;;;5080880;28;20031;-65
2023/06/12 10:45:37;;;;;;;20.77;12.00;;;12.80;99.90;;;;;;5082466;28;20475;-65
2023/06/12 10:48:04;;;;;;;20.05;10.25;;;12.80;99.90;;;;;;5081435;28;20476;-66
2023/06/12 10:50:33;;;;;;;14.85;9.80;;;12.80;99.90;;;;;;5083521;28;20063;-65
2023/06/12 10:53:05;;;;;;;15.02;11.05;;;12.80;99.90;;;;;;5082945;28;20028;-67
2023/06/12 10:55:34;;;;;;;15.98;9.85;;;12.70;99.90;;;;;;5088497;28;20454;-66
2023/06/12 10:58:07;;;;;;;14.10;9.60;;;12.70;99.90;;;;;;5084289;28;20073;-66
2023/06/12 11:00:37;;;;;;;15.48;9.25;;;12.70;99.90;;;;;;5084462;28;20385;-66
2023/06/12 11:03:06;;;;;;;16.65;10.02;;;12.70;99.90;;;;;;5083951;28;20081;-66
2023/06/12 11:05:35;;;;;;;13.38;8.65;;;12.60;99.90;;;;;;5079303;28;20031;-65
2023/06/12 11:08:06;;;;;;;15.98;9.38;;;12.60;99.90;;;;;;5086957;28;20020;-65
2023/06/12 11:10:35;;;;;;;17.38;9.50;;;12.60;99.90;;;;;;5086605;28;20032;-66
2023/06/12 11:13:03;;;;;;;17.00;10.35;;;12.60;99.90;;;;;;5081747;28;20024;-66
2023/06/12 11:15:41;;;;;;;14.40;8.45;;;12.50;99.90;;;;;;5073198;28;20484;-66
2023/06/12 11:18:10;;;;;;;14.40;8.40;;;12.50;99.90;;;;;;5086892;28;20392;-67
2023/06/12 11:20:37;;;;;;;15.18;9.73;;;12.40;99.90;;;;;;5086769;28;20051;-66
2023/06/12 11:23:06;;;;;;;22.23;12.27;;;12.40;99.90;;;;;;5085642;28;20036;-66
2023/06/12 11:25:43;;;;;;;16.15;9.63;;;12.40;99.90;;;;;;5079721;28;20024;-66
2023/06/12 11:28:12;;;;;;;19.98;12.10;;;12.40;99.90;;;;;;5078231;28;20031;-66
2023/06/12 11:30:40;;;;;;;24.60;11.93;;;12.40;99.90;;;;;;5084663;28;20052;-66
2023/06/12 11:33:13;;;;;;;22.98;11.85;;;12.50;99.90;;;;;;5084674;28;21773;-67
2023/06/12 11:35:42;;;;;;;21.73;11.43;;;12.50;99.90;;;;;;5085878;28;20024;-66
2023/06/12 11:38:14;;;;;;;17.73;10.38;;;12.50;99.90;;;;;;5085544;28;20115;-66
2023/06/12 11:40:46;;;;;;;19.50;10.85;;;12.50;99.90;;;;;;5082825;28;20055;-66
2023/06/12 11:43:15;;;;;;;20.60;11.32;;;12.50;99.90;;;;;;5083427;28;20028;-66
2023/06/12 11:45:43;;;;;;;14.10;8.93;;;12.50;99.90;;;;;;5082335;28;20028;-65
2023/06/12 11:48:16;;;;;;;16.27;9.15;;;12.60;99.90;;;;;;5084707;28;20119;-66
2023/06/12 11:50:49;;;;;;;22.52;9.15;;;12.60;99.90;;;;;;5082993;28;20031;-66
2023/06/12 11:53:18;;;;;;;16.42;9.18;;;12.60;99.90;;;;;;5083653;28;20560;-65
2023/06/12 11:55:56;;;;;;;15.50;7.70;;;12.60;99.90;;;;;;5084441;28;20473;-67
2023/06/12 11:58:41;;;;;;;15.27;9.30;;;12.80;99.90;;;;;;5085877;28;20555;-66
2023/06/12 12:01:13;;;;;;;23.20;14.45;;;12.80;99.90;;;;;;5079633;28;20649;-65
2023/06/12 12:03:47;;;;;;;29.10;14.95;;;12.80;99.90;;;;;;5078814;28;20048;-66
2023/06/12 12:06:18;;;;;;;24.88;13.98;;;12.90;99.90;;;;;;5081075;28;20013;-66
2023/06/12 12:08:54;;;;;;;18.95;11.93;;;12.90;99.90;;;;;;5084711;28;20024;-65
2023/06/12 12:11:26;;;;;;;24.85;9.98;;;12.90;99.90;;;;;;5083612;28;20572;-64
2023/06/12 12:14:01;;;;;;;16.38;8.90;;;12.90;99.90;;;;;;5079242;28;20078;-65
2023/06/12 12:16:38;;;;;;;11.32;8.05;;;12.90;99.90;;;;;;5086672;28;20484;-65
2023/06/12 12:19:25;;;;;;;13.20;7.25;;;12.90;99.90;;;;;;5086913;28;20667;-66
2023/06/12 12:21:54;;;;;;;12.32;7.63;;;12.90;99.90;;;;;;5086438;28;20016;-65
2023/06/12 12:24:23;;;;;;;11.80;6.22;;;12.90;99.90;;;;;;5085434;28;20043;-65
2023/06/12 12:26:52;;;;;;;14.82;6.20;;;12.80;99.90;;;;;;5088727;28;20024;-65
2023/06/12 12:29:21;;;;;;;9.35;6.07;;;12.70;99.90;;;;;;5085014;28;20105;-65
2023/06/12 12:31:48;;;;;;;10.95;6.38;;;12.70;99.90;;;;;;5089284;28;20024;-65
2023/06/12 12:34:16;;;;;;;10.45;5.90;;;12.70;99.90;;;;;;5090164;28;20401;-66
2023/06/12 12:36:43;;;;;;;9.32;5.70;;;12.70;99.90;;;;;;5090397;28;20438;-66
2023/06/12 12:39:11;;;;;;;9.52;5.25;;;12.70;99.90;;;;;;5088860;28;20020;-65
2023/06/12 12:41:38;;;;;;;8.50;5.25;;;12.70;99.90;;;;;;5088296;28;20034;-66
2023/06/12 12:44:06;;;;;;;9.98;4.57;;;12.70;99.90;;;;;;5089942;28;20032;-65
2023/06/12 12:46:34;;;;;;;7.30;4.30;;;12.70;99.90;;;;;;5089297;27;20388;-65